Terminal Aerodrome Forecast
Issued by NWS

Current Version | Previous Version | Text Only | Print | Product List | Glossary On
Versions: 1 2 3 4 5 6 7 8 9 10 11 12 13 14 15 16 17 18 19
544
FTUS42 KGSP 290531
TAFAND
TAF
KAND 290531Z 2906/3006 04003KT P6SM SKC
     FM291500 07006KT P6SM FEW050
     FM291800 11004KT P6SM FEW050
     FM292300 05008KT P6SM SCT050=

USA.gov is the U.S. government's official web portal to all federal, state and local government web resources and services.